Terminal Aerodrome Forecast
Issued by NWS Atlanta, GA

Home | Current Version | Previous Version | Text Only | Print | Product List | Glossary On
Versions: 1 2 3 4 5 6 7 8 9 10 11 12 13 14 15 16 17 18 19 20 21 22 23 24 25 26 27 28 29 30 31 32 33 34 35 36 37
000
FTAK31 PAJN 010618 AAA
TAFAHN
TAF AMD
PAHN 010618Z 0106/0206 10005KT P6SM VCSH BKN070 BKN100
      TEMPO 0106/0110 BKN015 OVC070
     FM011000 VRB03KT P6SM VCSH SCT015 OVC070
     FM011900 13005KT P6SM VCSH BKN050 OVC070
     FM012200 12008KT P6SM BKN050 BKN070
      AMD LTD TO CLD VIS AND WIND=

USA.gov is the U.S. government's official web portal to all federal, state and local government web resources and services.